Alto, NM

6:43 PM MDT on September 20, 2014 (GMT -0600)
Eagle Creek Canyon | Change Station
CLOSE
Current Station
Personal Weather Station
Location: Ruidoso, NM
Elevation: 7200 ft
Nearby Weather Stations
Active Advisory: Flash Flood Watch

Elev 7200 ft 33.39 °N, 105.65 °W | Updated 0 second ago

Clear
Clear
65.3 °F
Feels Like 65.3 °F
N
0.0
Wind Variable Wind from East
Gusts 0.0 mph

Today
High -- | Low -- °F
--% Chance of Precip.
Yesterday
High -- | Low -- °F
Precip. -- in
6:49 AM 7:02 PM
Waning Crescent, 9% visible
Pressure 30.27 in
Visibility 10.0 miles
Clouds Clear
Dew Point 56 °F
Humidity 71%
Rainfall 0.01 in
Snow Depth 2 in , 1 in , 0 in
UV 0 out of 12
Pollen 8.40 out of 12
Air Quality Not available.
Flu Activity Not available.
METAR KSRR 210015Z AUTO 13008KT 10SM CLR 19/14 A3027 RMK AO2

More Conditions Fewer Conditions

Pressure 30.27 in
Visibility 10.0 miles
Clouds Clear
Dew Point 56 °F
Humidity 71%
Rainfall 0.01 in
Snow Depth 2 in , 1 in , 0 in
UV 0 out of 12
Pollen 8.40 out of 12
Air Quality Not available.
Flu Activity Not available.
METAR KSRR 210015Z AUTO 13008KT 10SM CLR 19/14 A3027 RMK AO2

More Conditions Fewer Conditions

10-Day Weather Forecast

Almanac

Astronomy

Sep. 20, 2014 Rise Set
Actual Time 6:49 AM MDT 7:02 PM MDT
Civil Twilight 6:24 AM MDT 7:26 PM MDT
Nautical Twilight 5:55 AM MDT 7:55 PM MDT
Astronomical Twilight 5:26 AM MDT 8:25 PM MDT
Moon 3:39 AM MDT (9/20) 5:00 PM MDT (9/20)
Length of Visible Light 13h 02m
Length of Day
12h 12m
Tomorrow will be 2m 3s shorter.
Waning Crescent, 9% of the Moon is Illuminated
Today
Waning Crescent
Sep 24
New
Oct 1
First Quarter
Oct 8
Full
Oct 15
Last Quarter

Today's Extremes

State Highs State Lows

Community

WunderPhotos

Upload Photos

1,755,000 photos uploaded!

WunderBlogs® & News

Nearby

Snow Depth

Station Depth Elevation
Wesner Springs 2 in 11120 ft
Silver Creek Divide 1 in 9000 ft
Signal Peak 0 in 8360 ft
Sierra Blanca 0 in 10280 ft
Frisco Divide 0 in 8000 ft

Earthquake Activity

City Distance Mag. Time & Date
No recent earthquake activity has been reported nearby.
Minimum magnitude displayed is 2.5.

Coastal Water Temperatures

Place Temperature
No Stations Reporting

Nearby Weather Stations